createdAt,value
2019-03-27T00:02:20.835Z,24.87
2019-03-27T00:04:53.747Z,19.63
2019-03-27T00:07:26.320Z,22.98
2019-03-27T00:09:58.824Z,20.70
2019-03-27T00:12:31.340Z,21.20
2019-03-27T00:15:12.713Z,24.27
2019-03-27T00:17:38.267Z,17.80
2019-03-27T00:20:11.940Z,22.67
2019-03-27T00:22:44.446Z,19.90
2019-03-27T00:25:17.039Z,20.83
2019-03-27T00:27:49.547Z,20.53
2019-03-27T00:30:22.233Z,24.85
2019-03-27T00:32:54.813Z,23.77
2019-03-27T00:35:27.310Z,22.45
2019-03-27T00:37:59.817Z,25.20
2019-03-27T00:40:32.315Z,22.98
2019-03-27T00:43:04.964Z,21.73
2019-03-27T00:45:37.502Z,27.07
2019-03-27T00:48:10.728Z,26.23
2019-03-27T00:50:43.240Z,24.37
2019-03-27T00:53:16.080Z,26.37
2019-03-27T00:55:49.014Z,22.40
2019-03-27T00:58:21.508Z,26.97
2019-03-27T01:01:09.107Z,23.03
2019-03-27T01:03:41.708Z,23.73
2019-03-27T01:06:15.041Z,23.50
2019-03-27T01:08:47.604Z,25.43
2019-03-27T01:11:20.383Z,24.02
2019-03-27T01:13:52.882Z,22.33
2019-03-27T01:16:25.497Z,21.70
2019-03-27T01:18:58.084Z,22.48
2019-03-27T01:21:30.615Z,20.67
2019-03-27T01:24:03.109Z,25.53
2019-03-27T01:26:35.628Z,26.75
2019-03-27T01:29:08.105Z,24.60
2019-03-27T01:31:40.635Z,23.13
2019-03-27T01:34:13.204Z,22.50
2019-03-27T01:36:45.709Z,21.97
2019-03-27T01:39:18.290Z,18.92
2019-03-27T01:41:50.960Z,22.43
2019-03-27T01:44:23.481Z,25.85
2019-03-27T01:46:56.035Z,30.13
2019-03-27T01:49:28.547Z,29.90
2019-03-27T01:52:01.141Z,27.00
2019-03-27T01:54:33.969Z,22.77
2019-03-27T01:57:06.511Z,28.03
2019-03-27T01:59:39.948Z,24.83
2019-03-27T02:02:12.538Z,24.20
2019-03-27T02:04:45.065Z,24.27
2019-03-27T02:07:18.708Z,26.97
2019-03-27T02:09:51.225Z,26.93
2019-03-27T02:12:24.067Z,30.65
2019-03-27T02:14:56.575Z,27.87
2019-03-27T02:17:29.159Z,29.40
2019-03-27T02:20:01.732Z,25.03
2019-03-27T02:22:34.355Z,23.97
2019-03-27T02:25:07.251Z,23.57
2019-03-27T02:27:39.870Z,25.63
2019-03-27T02:30:13.286Z,26.70
2019-03-27T02:32:45.893Z,24.33
2019-03-27T02:35:18.382Z,25.68
2019-03-27T02:37:50.898Z,28.53
2019-03-27T02:40:23.381Z,26.40
2019-03-27T02:42:56.151Z,29.93
2019-03-27T02:45:28.661Z,27.13
2019-03-27T02:48:01.261Z,25.83
2019-03-27T02:50:33.771Z,25.23
2019-03-27T02:53:06.728Z,28.83
2019-03-27T02:55:39.219Z,29.90
2019-03-27T02:58:11.828Z,24.73
2019-03-27T03:00:44.446Z,28.17
2019-03-27T03:03:16.930Z,29.02
2019-03-27T03:05:49.519Z,27.87
2019-03-27T03:08:22.012Z,26.80
2019-03-27T03:10:54.597Z,27.07
2019-03-27T03:13:27.148Z,31.07
2019-03-27T03:15:59.762Z,28.60
2019-03-27T03:18:32.325Z,29.30
2019-03-27T03:21:04.983Z,27.83
2019-03-27T03:23:37.808Z,25.77
2019-03-27T03:26:10.406Z,30.10
2019-03-27T03:28:42.901Z,30.70
2019-03-27T03:31:16.482Z,27.03
2019-03-27T03:33:48.993Z,25.93
2019-03-27T03:36:21.810Z,27.97
2019-03-27T03:38:54.325Z,29.87
2019-03-27T03:41:26.852Z,29.07
2019-03-27T03:43:59.349Z,28.40
2019-03-27T03:46:31.893Z,29.23
2019-03-27T03:49:04.400Z,25.97
2019-03-27T03:51:37.167Z,30.57
2019-03-27T03:54:11.031Z,33.50
2019-03-27T03:56:43.696Z,28.53
2019-03-27T03:59:17.724Z,29.70
2019-03-27T04:01:53.573Z,34.83
2019-03-27T04:04:26.315Z,27.90
2019-03-27T04:06:59.126Z,30.40
2019-03-27T04:09:31.669Z,32.57
2019-03-27T04:12:04.230Z,30.17
2019-03-27T04:14:36.722Z,27.47
2019-03-27T04:17:17.146Z,25.87
2019-03-27T04:19:43.554Z,28.90
2019-03-27T04:22:16.147Z,26.00
2019-03-27T04:24:49.617Z,27.57
2019-03-27T04:27:22.143Z,36.57
2019-03-27T04:29:54.626Z,27.40
2019-03-27T04:32:27.128Z,30.40
2019-03-27T04:35:00.665Z,34.97
2019-03-27T04:37:33.171Z,31.07
2019-03-27T04:40:05.900Z,31.13
2019-03-27T04:42:38.481Z,27.33
2019-03-27T04:45:11.160Z,31.17
2019-03-27T04:47:43.652Z,29.80
2019-03-27T04:50:16.292Z,32.93
2019-03-27T04:52:50.076Z,27.67
2019-03-27T04:55:22.915Z,30.37
2019-03-27T04:57:55.401Z,33.67
2019-03-27T05:00:27.893Z,31.63
2019-03-27T05:03:00.402Z,28.77
2019-03-27T05:05:33.025Z,29.30
2019-03-27T05:08:06.066Z,37.23
2019-03-27T05:10:38.810Z,30.63
2019-03-27T05:13:11.482Z,34.83
2019-03-27T05:15:44.339Z,29.67
2019-03-27T05:18:16.999Z,29.77
2019-03-27T05:20:49.706Z,30.23
2019-03-27T05:23:22.500Z,29.47
2019-03-27T05:25:54.982Z,28.20
2019-03-27T05:28:27.631Z,31.13
2019-03-27T05:31:00.133Z,29.20
2019-03-27T05:33:32.924Z,37.57
2019-03-27T05:36:05.964Z,35.40
2019-03-27T05:38:38.707Z,39.90
2019-03-27T05:41:11.309Z,33.17
2019-03-27T05:43:43.987Z,32.10
2019-03-27T05:46:16.551Z,30.17
2019-03-27T05:48:49.240Z,33.30
2019-03-27T05:51:21.823Z,32.67
2019-03-27T05:53:54.932Z,32.03
2019-03-27T05:56:27.412Z,26.93
2019-03-27T05:59:00.577Z,34.57
2019-03-27T06:01:33.082Z,31.13
2019-03-27T06:04:05.666Z,29.27
2019-03-27T06:06:38.154Z,32.30
2019-03-27T06:09:12.301Z,32.83
2019-03-27T06:11:44.806Z,31.33
2019-03-27T06:14:17.286Z,32.73
2019-03-27T06:16:49.767Z,28.50
2019-03-27T06:19:22.270Z,33.17
2019-03-27T06:21:54.751Z,34.10
2019-03-27T06:24:27.279Z,33.17
2019-03-27T06:26:59.824Z,30.43
2019-03-27T06:29:32.304Z,33.20
2019-03-27T06:32:04.857Z,32.60
2019-03-27T06:34:37.643Z,28.63
2019-03-27T06:37:10.133Z,26.97
2019-03-27T06:39:42.737Z,30.87
2019-03-27T06:42:15.289Z,36.33
2019-03-27T06:44:47.798Z,36.13
2019-03-27T06:47:20.970Z,35.43
2019-03-27T06:49:53.565Z,32.10
2019-03-27T06:52:26.301Z,36.80
2019-03-27T06:54:58.934Z,29.53
2019-03-27T06:57:31.480Z,33.00
2019-03-27T07:00:04.839Z,33.03
2019-03-27T07:02:37.421Z,35.23
2019-03-27T07:05:10.443Z,26.40
2019-03-27T07:07:42.928Z,34.77
2019-03-27T07:10:15.596Z,30.93
2019-03-27T07:12:48.083Z,33.10
2019-03-27T07:15:20.572Z,27.95
2019-03-27T07:17:53.125Z,28.17
2019-03-27T07:20:25.695Z,26.07
2019-03-27T07:23:00.821Z,29.43
2019-03-27T07:25:33.657Z,29.83
2019-03-27T07:28:06.567Z,24.97
2019-03-27T07:30:39.053Z,26.53
2019-03-27T07:33:11.855Z,27.33
2019-03-27T07:35:44.441Z,24.30
2019-03-27T07:38:16.936Z,25.37
2019-03-27T07:40:49.424Z,23.93
2019-03-27T07:43:21.913Z,24.10
2019-03-27T07:45:54.399Z,18.43
2019-03-27T07:48:26.885Z,23.10
2019-03-27T07:50:59.367Z,21.13
2019-03-27T07:53:31.861Z,23.83
2019-03-27T07:56:04.372Z,24.37
2019-03-27T07:58:36.858Z,26.30
2019-03-27T08:01:09.362Z,20.20
2019-03-27T08:03:41.838Z,21.87
2019-03-27T08:06:14.419Z,21.47
2019-03-27T08:08:46.987Z,18.63
2019-03-27T08:11:19.487Z,12.27
2019-03-27T08:13:51.940Z,16.90
2019-03-27T08:16:24.507Z,15.00
2019-03-27T08:19:07.542Z,20.57
2019-03-27T08:21:32.537Z,17.90
2019-03-27T08:24:05.108Z,13.60
2019-03-27T08:26:37.680Z,12.43
2019-03-27T08:29:10.173Z,14.50
2019-03-27T08:31:42.728Z,10.30
2019-03-27T08:34:15.219Z,11.00
2019-03-27T08:36:47.799Z,7.77
2019-03-27T08:39:20.270Z,8.50
2019-03-27T08:41:52.747Z,9.73
2019-03-27T08:44:25.227Z,9.15
2019-03-27T08:46:58.067Z,8.70
2019-03-27T08:49:30.542Z,11.80
2019-03-27T08:52:03.366Z,16.27
2019-03-27T08:54:35.849Z,10.73
2019-03-27T08:57:08.423Z,11.90
2019-03-27T08:59:40.900Z,13.60
2019-03-27T09:02:14.825Z,9.10
2019-03-27T09:04:47.310Z,10.47
2019-03-27T09:07:20.186Z,16.40
2019-03-27T09:09:52.758Z,10.47
2019-03-27T09:12:25.339Z,11.38
2019-03-27T09:14:57.834Z,9.50
2019-03-27T09:17:30.409Z,7.20
2019-03-27T09:20:02.902Z,8.30
2019-03-27T09:22:35.391Z,10.85
2019-03-27T09:25:08.588Z,7.80
2019-03-27T09:27:41.693Z,9.03
2019-03-27T09:30:15.785Z,9.95
2019-03-27T09:32:48.450Z,9.47
2019-03-27T09:35:21.082Z,9.80
2019-03-27T09:37:53.653Z,9.33
2019-03-27T09:40:26.221Z,9.25
2019-03-27T09:42:58.711Z,9.03
2019-03-27T09:45:31.373Z,8.83
2019-03-27T09:48:03.942Z,10.70
2019-03-27T09:50:36.431Z,11.63
2019-03-27T09:53:09.196Z,9.03
2019-03-27T09:55:41.764Z,10.13
2019-03-27T09:58:14.680Z,8.57
2019-03-27T10:01:02.937Z,8.83
2019-03-27T10:03:35.584Z,6.30
2019-03-27T10:06:08.301Z,6.63
2019-03-27T10:08:40.859Z,6.87
2019-03-27T10:11:14.402Z,9.60
2019-03-27T10:13:47.163Z,9.50
2019-03-27T10:16:19.740Z,9.58
2019-03-27T10:18:52.219Z,8.50
2019-03-27T10:21:24.785Z,13.38
2019-03-27T10:23:57.288Z,9.03
2019-03-27T10:26:31.205Z,11.77
2019-03-27T10:29:03.783Z,7.90
2019-03-27T10:31:36.383Z,9.17
2019-03-27T10:34:08.896Z,5.95
2019-03-27T10:36:41.795Z,6.40
2019-03-27T10:39:14.559Z,6.60
2019-03-27T10:41:47.054Z,6.90
2019-03-27T10:44:19.559Z,9.38
2019-03-27T10:46:52.138Z,8.50
2019-03-27T10:49:24.658Z,7.05
2019-03-27T10:51:57.232Z,6.97
2019-03-27T10:54:29.720Z,5.40
2019-03-27T10:57:02.232Z,6.87
2019-03-27T10:59:34.741Z,4.20
2019-03-27T11:02:07.235Z,7.30
2019-03-27T11:04:39.723Z,5.93
2019-03-27T11:07:12.211Z,5.03
2019-03-27T11:09:44.789Z,6.33
2019-03-27T11:12:17.305Z,7.47
2019-03-27T11:14:49.883Z,6.93
2019-03-27T11:17:22.766Z,5.62
2019-03-27T11:19:55.276Z,12.33
2019-03-27T11:22:27.761Z,4.65
2019-03-27T11:25:00.361Z,5.10
2019-03-27T11:27:32.829Z,4.50
2019-03-27T11:30:05.983Z,5.50
2019-03-27T11:32:38.458Z,7.47
2019-03-27T11:35:11.307Z,5.13
2019-03-27T11:37:43.776Z,4.63
2019-03-27T11:40:16.459Z,6.72
2019-03-27T11:42:49.027Z,4.10
2019-03-27T11:45:21.689Z,6.23
2019-03-27T11:47:54.246Z,4.23
2019-03-27T11:50:26.745Z,3.47
2019-03-27T11:53:02.741Z,4.87
2019-03-27T11:55:35.392Z,2.83
2019-03-27T11:58:08.020Z,6.40
2019-03-27T12:00:53.884Z,5.53
2019-03-27T12:03:14.860Z,5.55
2019-03-27T12:05:47.366Z,2.90
2019-03-27T12:08:20.842Z,5.37
2019-03-27T12:10:53.422Z,5.80
2019-03-27T12:13:25.918Z,5.12
2019-03-27T12:15:58.483Z,4.53
2019-03-27T12:18:32.173Z,3.93
2019-03-27T12:21:05.384Z,3.63
2019-03-27T12:23:37.880Z,5.60
2019-03-27T12:26:10.403Z,3.50
2019-03-27T12:28:42.893Z,5.12
2019-03-27T12:31:15.648Z,5.17
2019-03-27T12:33:48.156Z,6.70
2019-03-27T12:36:20.649Z,4.83
2019-03-27T12:38:53.232Z,6.90
2019-03-27T12:41:25.738Z,4.40
2019-03-27T12:43:58.325Z,3.93
2019-03-27T12:46:30.841Z,6.27
2019-03-27T12:49:03.631Z,4.13
2019-03-27T12:51:36.146Z,4.03
2019-03-27T12:54:09.155Z,4.80
2019-03-27T12:56:41.677Z,4.37
2019-03-27T12:59:14.243Z,4.60
2019-03-27T13:01:46.755Z,6.20
2019-03-27T13:04:19.995Z,4.70
2019-03-27T13:06:52.509Z,6.87
2019-03-27T13:09:25.000Z,5.35
2019-03-27T13:11:57.511Z,6.40
2019-03-27T13:14:30.288Z,3.80
2019-03-27T13:17:03.077Z,3.60
2019-03-27T13:19:35.646Z,7.43
2019-03-27T13:22:08.173Z,2.83
2019-03-27T13:24:40.661Z,6.05
2019-03-27T13:27:13.168Z,5.97
2019-03-27T13:29:45.983Z,2.90
2019-03-27T13:32:18.846Z,7.83
2019-03-27T13:34:51.361Z,3.63
2019-03-27T13:37:23.939Z,3.50
2019-03-27T13:39:59.845Z,4.33
2019-03-27T13:42:31.019Z,4.87
2019-03-27T13:45:04.149Z,4.07
2019-03-27T13:47:36.896Z,7.27
2019-03-27T13:50:13.126Z,5.03
2019-03-27T13:52:46.074Z,5.87
2019-03-27T13:55:18.728Z,3.87
2019-03-27T13:57:51.260Z,5.83
2019-03-27T14:00:23.923Z,3.30
2019-03-27T14:02:58.191Z,4.00
2019-03-27T14:05:30.748Z,4.53
2019-03-27T14:08:03.868Z,3.87
2019-03-27T14:10:37.373Z,5.27
2019-03-27T14:13:11.061Z,3.85
2019-03-27T14:15:43.713Z,6.87
2019-03-27T14:18:16.475Z,3.80
2019-03-27T14:20:49.000Z,6.43
2019-03-27T14:23:21.674Z,4.10
2019-03-27T14:25:54.171Z,6.10
2019-03-27T14:28:26.757Z,5.42
2019-03-27T14:31:00.087Z,3.40
2019-03-27T14:33:32.682Z,5.03
2019-03-27T14:36:05.344Z,3.77
2019-03-27T14:38:37.904Z,4.93
2019-03-27T14:41:10.903Z,3.90
2019-03-27T14:43:43.505Z,5.87
2019-03-27T14:46:16.120Z,4.75
2019-03-27T14:48:48.703Z,4.40
2019-03-27T14:51:21.213Z,3.47
2019-03-27T14:53:53.853Z,4.30
2019-03-27T14:56:26.673Z,6.03
2019-03-27T14:58:59.167Z,5.27
2019-03-27T15:01:35.408Z,3.60
2019-03-27T15:04:06.673Z,5.10
2019-03-27T15:06:39.238Z,5.47
2019-03-27T15:09:11.880Z,4.13
2019-03-27T15:11:44.530Z,4.60
2019-03-27T15:14:18.156Z,6.45
2019-03-27T15:16:50.669Z,5.00
2019-03-27T15:19:23.603Z,4.22
2019-03-27T15:21:56.108Z,3.37
2019-03-27T15:24:28.600Z,4.90
2019-03-27T15:27:01.182Z,7.27
2019-03-27T15:29:34.749Z,4.43
2019-03-27T15:32:15.405Z,4.43
2019-03-27T15:34:48.001Z,4.80
2019-03-27T15:37:20.497Z,6.42
2019-03-27T15:39:52.999Z,4.65
2019-03-27T15:42:25.508Z,3.87
2019-03-27T15:44:57.992Z,4.87
2019-03-27T15:47:30.523Z,3.43
2019-03-27T15:50:03.071Z,4.50
2019-03-27T15:52:37.122Z,4.23
2019-03-27T15:55:11.042Z,5.70
2019-03-27T15:57:43.876Z,4.57
2019-03-27T16:00:17.021Z,5.50
2019-03-27T16:02:49.674Z,4.83
2019-03-27T16:05:22.203Z,6.37
2019-03-27T16:07:54.818Z,4.33
2019-03-27T16:10:27.491Z,8.07
2019-03-27T16:13:00.011Z,4.80
2019-03-27T16:15:32.611Z,6.10
2019-03-27T16:18:05.679Z,5.80
2019-03-27T16:20:38.263Z,5.97
2019-03-27T16:23:10.768Z,3.73
2019-03-27T16:25:43.257Z,5.47
2019-03-27T16:28:16.125Z,8.87
2019-03-27T16:30:48.717Z,4.47
2019-03-27T16:33:21.563Z,7.70
2019-03-27T16:35:54.061Z,4.43
2019-03-27T16:38:26.632Z,5.97
2019-03-27T16:40:59.513Z,4.97
2019-03-27T16:43:32.054Z,6.17
2019-03-27T16:46:04.687Z,4.37
2019-03-27T16:48:38.319Z,5.07
2019-03-27T16:51:10.815Z,7.13
2019-03-27T16:53:43.386Z,3.93
2019-03-27T16:56:16.472Z,4.55
2019-03-27T16:58:49.303Z,6.27
2019-03-27T17:01:25.001Z,5.00
2019-03-27T17:03:57.689Z,5.70
2019-03-27T17:06:30.517Z,4.67
2019-03-27T17:09:10.365Z,6.00
2019-03-27T17:11:43.165Z,8.43
2019-03-27T17:14:15.994Z,6.08
2019-03-27T17:16:48.730Z,5.53
2019-03-27T17:19:21.333Z,5.70
2019-03-27T17:21:54.487Z,5.50
2019-03-27T17:24:27.748Z,5.97
2019-03-27T17:27:00.444Z,7.23
2019-03-27T17:29:33.477Z,5.53
2019-03-27T17:32:06.576Z,6.57
2019-03-27T17:34:39.481Z,8.10
2019-03-27T17:37:12.017Z,8.10
2019-03-27T17:39:44.895Z,3.33
2019-03-27T17:42:18.699Z,5.92
2019-03-27T17:44:52.371Z,7.90
2019-03-27T17:47:25.052Z,6.95
2019-03-27T17:49:57.823Z,5.67
2019-03-27T17:52:30.414Z,5.93
2019-03-27T17:55:03.262Z,5.80
2019-03-27T17:57:36.492Z,7.70
2019-03-27T18:00:10.478Z,8.10
2019-03-27T18:02:43.176Z,6.22
2019-03-27T18:05:16.006Z,5.73
2019-03-27T18:07:48.765Z,5.83
2019-03-27T18:10:21.728Z,3.40
2019-03-27T18:12:58.541Z,4.27
2019-03-27T18:15:31.335Z,5.00
2019-03-27T18:18:04.578Z,6.03
2019-03-27T18:20:37.469Z,4.73
2019-03-27T18:23:10.858Z,6.40
2019-03-27T18:25:43.867Z,3.77
2019-03-27T18:28:16.791Z,6.42
2019-03-27T18:30:50.589Z,7.70
2019-03-27T18:33:23.403Z,4.20
2019-03-27T18:35:56.142Z,5.50
2019-03-27T18:38:28.854Z,3.92
2019-03-27T18:41:01.434Z,7.07
2019-03-27T18:43:34.101Z,4.80
2019-03-27T18:46:06.972Z,3.90
2019-03-27T18:48:40.166Z,5.60
2019-03-27T18:51:14.105Z,5.53
2019-03-27T18:53:58.939Z,3.43
2019-03-27T18:56:21.315Z,5.97
2019-03-27T18:58:54.261Z,4.00
2019-03-27T19:01:27.169Z,9.28
2019-03-27T19:04:00.178Z,3.87
2019-03-27T19:06:32.987Z,5.63
2019-03-27T19:09:08.924Z,3.67
2019-03-27T19:11:42.139Z,4.80
2019-03-27T19:14:15.053Z,6.47
2019-03-27T19:16:47.859Z,5.47
2019-03-27T19:19:20.597Z,5.83
2019-03-27T19:21:53.295Z,6.20
2019-03-27T19:24:26.259Z,6.17
2019-03-27T19:26:58.898Z,5.10
2019-03-27T19:29:31.554Z,6.60
2019-03-27T19:32:04.351Z,8.80
2019-03-27T19:34:37.103Z,4.37
2019-03-27T19:37:10.222Z,9.57
2019-03-27T19:39:42.908Z,11.27
2019-03-27T19:42:15.504Z,7.33
2019-03-27T19:44:48.197Z,10.17
2019-03-27T19:47:20.999Z,7.53
2019-03-27T19:49:53.728Z,7.17
2019-03-27T19:52:27.435Z,8.08
2019-03-27T19:55:00.552Z,8.27
2019-03-27T19:57:33.462Z,8.67
2019-03-27T20:00:08.903Z,8.70
2019-03-27T20:02:41.835Z,10.53
2019-03-27T20:05:15.035Z,9.47
2019-03-27T20:07:47.735Z,8.10
2019-03-27T20:10:21.533Z,5.87
2019-03-27T20:12:54.320Z,7.87
2019-03-27T20:15:27.132Z,6.58
2019-03-27T20:17:59.814Z,7.33
2019-03-27T20:20:33.744Z,7.07
2019-03-27T20:23:14.870Z,5.67
2019-03-27T20:25:40.985Z,6.83
2019-03-27T20:28:13.619Z,8.67
2019-03-27T20:30:46.290Z,6.43
2019-03-27T20:33:19.155Z,8.93
2019-03-27T20:35:51.944Z,9.47
2019-03-27T20:38:24.754Z,10.70
2019-03-27T20:40:57.625Z,7.60
2019-03-27T20:43:31.878Z,11.60
2019-03-27T20:46:04.691Z,8.87
2019-03-27T20:48:37.385Z,11.75
2019-03-27T20:51:11.449Z,10.48
2019-03-27T20:53:44.168Z,8.90
2019-03-27T20:56:16.998Z,5.30
2019-03-27T20:58:49.916Z,10.13
2019-03-27T21:01:22.627Z,5.05
2019-03-27T21:03:55.318Z,6.23
2019-03-27T21:06:27.893Z,5.77
2019-03-27T21:09:00.374Z,5.33
2019-03-27T21:11:34.533Z,6.77
2019-03-27T21:14:07.104Z,6.03
2019-03-27T21:16:40.063Z,6.70
2019-03-27T21:19:12.643Z,9.33
2019-03-27T21:21:45.452Z,8.13
2019-03-27T21:24:17.948Z,12.60
2019-03-27T21:26:50.460Z,8.33
2019-03-27T21:29:22.963Z,9.08
2019-03-27T21:31:56.617Z,9.33
2019-03-27T21:34:29.242Z,13.03
2019-03-27T21:37:01.715Z,13.70
2019-03-27T21:39:34.253Z,22.47
2019-03-27T21:42:06.847Z,16.03
2019-03-27T21:44:40.306Z,13.67
2019-03-27T21:47:12.880Z,11.87
2019-03-27T21:49:45.456Z,8.23
2019-03-27T21:52:17.957Z,11.33
2019-03-27T21:54:50.519Z,8.67
2019-03-27T21:57:22.999Z,7.40
2019-03-27T21:59:55.624Z,7.67
2019-03-27T22:02:28.277Z,9.00
2019-03-27T22:05:00.767Z,6.33
2019-03-27T22:07:33.347Z,6.33
2019-03-27T22:10:07.235Z,7.27
2019-03-27T22:12:39.779Z,8.03
2019-03-27T22:15:12.359Z,8.33
2019-03-27T22:17:44.848Z,7.90
2019-03-27T22:20:17.419Z,6.55
2019-03-27T22:22:49.993Z,9.37
2019-03-27T22:25:34.892Z,7.60
2019-03-27T22:27:56.769Z,8.73
2019-03-27T22:30:30.231Z,10.10
2019-03-27T22:33:02.810Z,8.10
2019-03-27T22:35:35.277Z,9.30
2019-03-27T22:38:07.778Z,14.80
2019-03-27T22:40:40.334Z,10.33
2019-03-27T22:43:13.123Z,9.00
2019-03-27T22:45:45.592Z,6.97
2019-03-27T22:48:18.076Z,8.60
2019-03-27T22:50:50.675Z,14.13
2019-03-27T22:53:23.158Z,8.38
2019-03-27T22:55:55.627Z,9.17
2019-03-27T22:58:28.109Z,10.90
2019-03-27T23:01:00.948Z,9.20
2019-03-27T23:03:33.574Z,6.30
2019-03-27T23:06:06.300Z,8.83
2019-03-27T23:08:39.079Z,8.37
2019-03-27T23:11:11.640Z,9.93
2019-03-27T23:13:44.128Z,7.87
2019-03-27T23:16:16.607Z,9.05
2019-03-27T23:18:49.113Z,9.33
2019-03-27T23:21:21.590Z,9.75
2019-03-27T23:23:54.088Z,11.03
2019-03-27T23:26:26.577Z,12.18
2019-03-27T23:28:59.380Z,12.40
2019-03-27T23:31:31.973Z,15.27
2019-03-27T23:34:04.480Z,10.23
2019-03-27T23:36:37.335Z,12.97
2019-03-27T23:39:11.168Z,14.73
2019-03-27T23:41:44.144Z,10.20
2019-03-27T23:44:16.787Z,10.63
2019-03-27T23:46:49.270Z,13.60
2019-03-27T23:49:22.123Z,10.50
2019-03-27T23:51:54.608Z,13.30
2019-03-27T23:54:27.169Z,14.03
2019-03-27T23:56:59.651Z,12.27
2019-03-27T23:59:32.312Z,13.73
